Time;durP1;ratioP1;P1;durP2;ratioP2;P2;SDS_P1;SDS_P2;PMS_P1;PMS_P2;Temp;Humidity;BMP_temperature;BMP_pressure;BME280_temperature;BME280_humidity;BME280_pressure;Samples;Min_cycle;Max_cycle;Signal;HPM_P1;HPM_P2
2023/05/29 00:02:16;;;;;;;0.68;0.47;;;15.10;99.90;;;;;;5135416;27;20034;-74
2023/05/29 00:04:42;;;;;;;0.10;0.10;;;15.20;99.90;;;;;;5135324;27;20069;-74
2023/05/29 00:07:07;;;;;;;0.13;0.13;;;15.30;99.90;;;;;;5135282;27;20030;-74
2023/05/29 00:09:33;;;;;;;0.60;0.57;;;15.30;99.90;;;;;;5135161;27;20083;-74
2023/05/29 00:11:59;;;;;;;0.10;0.10;;;15.10;99.90;;;;;;5135134;27;20019;-74
2023/05/29 00:14:25;;;;;;;0.40;0.40;;;14.90;99.90;;;;;;5135019;27;20067;-74
2023/05/29 00:16:52;;;;;;;0.95;0.28;;;14.90;99.90;;;;;;5135163;27;20438;-74
2023/05/29 00:19:19;;;;;;;1.23;1.05;;;14.80;99.90;;;;;;5135019;27;20027;-74
2023/05/29 00:21:47;;;;;;;5.38;1.33;;;14.90;99.90;;;;;;5134980;27;20468;-74
2023/05/29 00:24:16;;;;;;;0.30;0.30;;;14.90;99.90;;;;;;5116688;27;20076;-74
2023/05/29 00:26:42;;;;;;;0.20;0.20;;;14.90;99.90;;;;;;5065271;28;20054;-75
2023/05/29 00:29:08;;;;;;;0.35;0.35;;;14.90;99.90;;;;;;5109006;27;20023;-74
2023/05/29 00:31:35;;;;;;;0.28;0.28;;;14.80;99.90;;;;;;5116077;27;20463;-75
2023/05/29 00:34:01;;;;;;;0.10;0.10;;;14.90;99.90;;;;;;5134813;27;20031;-75
2023/05/29 00:36:28;;;;;;;0.32;0.32;;;14.80;99.90;;;;;;5103179;28;20081;-74
2023/05/29 00:38:54;;;;;;;0.10;0.10;;;14.70;99.90;;;;;;5133700;27;20024;-74
2023/05/29 00:41:20;;;;;;;0.80;0.80;;;14.60;99.90;;;;;;5134043;27;20559;-75
2023/05/29 00:43:46;;;;;;;0.45;0.45;;;14.70;99.90;;;;;;5115795;27;20031;-74
2023/05/29 00:46:14;;;;;;;1.05;0.90;;;14.50;99.90;;;;;;5099282;27;20087;-74
2023/05/29 00:48:41;;;;;;;0.50;0.50;;;14.40;99.90;;;;;;5115995;27;20035;-74
2023/05/29 00:51:09;;;;;;;4.68;0.40;;;14.30;99.90;;;;;;5134550;27;20507;-74
2023/05/29 00:53:35;;;;;;;1.27;0.35;;;14.30;99.90;;;;;;5115841;27;20115;-74
2023/05/29 00:56:02;;;;;;;0.45;0.45;;;14.30;99.90;;;;;;5115532;27;20101;-74
2023/05/29 00:58:28;;;;;;;0.10;0.10;;;14.30;99.90;;;;;;5115785;27;20088;-74
2023/05/29 01:00:54;;;;;;;0.63;0.60;;;14.20;99.90;;;;;;5134210;27;20050;-74
2023/05/29 01:03:22;;;;;;;0.10;0.10;;;14.30;99.90;;;;;;5098382;28;20027;-74
2023/05/29 01:05:48;;;;;;;1.58;1.42;;;14.20;99.90;;;;;;5095180;28;20043;-74
2023/05/29 01:08:14;;;;;;;0.15;0.15;;;14.00;99.90;;;;;;5113352;28;20507;-74
2023/05/29 01:10:42;;;;;;;0.80;0.68;;;13.90;99.90;;;;;;5112911;28;20028;-74
2023/05/29 01:13:20;;;;;;;0.15;0.15;;;13.80;99.90;;;;;;5095703;28;20383;-74
2023/05/29 01:16:09;;;;;;;0.20;0.20;;;13.70;99.90;;;;;;5113388;28;20058;-74
2023/05/29 01:19:00;;;;;;;0.10;0.10;;;13.60;99.90;;;;;;5095205;28;20035;-74
2023/05/29 01:22:06;;;;;;;0.10;0.10;;;13.60;99.90;;;;;;5095121;28;20022;-73
2023/05/29 01:24:42;;;;;;;0.10;0.10;;;13.50;99.90;;;;;;5088883;28;20032;-74
2023/05/29 01:27:10;;;;;;;0.10;0.10;;;13.40;99.90;;;;;;5095236;28;20492;-74
2023/05/29 01:29:39;;;;;;;0.95;0.90;;;13.50;99.90;;;;;;5094856;28;20395;-74
2023/05/29 01:32:05;;;;;;;0.85;0.73;;;13.40;99.90;;;;;;5113371;28;20349;-74
2023/05/29 01:34:31;;;;;;;5.90;0.88;;;13.50;99.90;;;;;;5113161;28;20016;-74
2023/05/29 01:36:57;;;;;;;0.32;0.32;;;13.40;99.90;;;;;;5094782;28;20122;-74
2023/05/29 01:39:24;;;;;;;0.80;0.55;;;13.40;99.90;;;;;;5113009;28;20410;-74
2023/05/29 01:41:52;;;;;;;0.60;0.60;;;13.40;99.90;;;;;;5094561;28;20077;-75
2023/05/29 01:44:18;;;;;;;0.20;0.20;;;13.30;99.90;;;;;;5095036;28;20027;-74
2023/05/29 01:46:46;;;;;;;0.32;0.32;;;13.20;99.90;;;;;;5094956;28;20059;-74
2023/05/29 01:49:13;;;;;;;2.05;1.27;;;13.00;99.90;;;;;;5095008;28;20391;-74
2023/05/29 01:51:43;;;;;;;0.90;0.90;;;12.90;99.90;;;;;;5094463;28;20081;-74
2023/05/29 01:54:09;;;;;;;0.30;0.30;;;13.00;99.90;;;;;;5112722;28;20411;-74
2023/05/29 01:56:36;;;;;;;4.85;0.73;;;13.00;99.90;;;;;;5094869;28;20093;-74
2023/05/29 01:59:03;;;;;;;9.90;2.13;;;13.10;99.90;;;;;;5113128;28;20073;-74
2023/05/29 02:01:30;;;;;;;0.13;0.13;;;13.10;99.90;;;;;;5094995;28;20024;-74
2023/05/29 02:03:56;;;;;;;0.52;0.52;;;13.10;99.90;;;;;;5112612;28;20065;-74
2023/05/29 02:06:22;;;;;;;3.88;1.42;;;13.00;99.90;;;;;;5112842;28;20027;-73
2023/05/29 02:08:48;;;;;;;0.10;0.10;;;13.00;99.90;;;;;;5112500;28;20101;-74
2023/05/29 02:11:14;;;;;;;0.65;0.65;;;12.90;99.90;;;;;;5112737;28;20060;-74
2023/05/29 02:13:39;;;;;;;0.10;0.10;;;12.90;99.90;;;;;;5094675;28;20036;-74
2023/05/29 02:16:06;;;;;;;3.85;0.68;;;12.90;99.90;;;;;;5094518;28;20161;-73
2023/05/29 02:18:31;;;;;;;0.15;0.15;;;13.10;99.90;;;;;;5112898;28;20032;-74
2023/05/29 02:20:57;;;;;;;0.63;0.50;;;13.10;99.90;;;;;;5113170;28;20020;-74
2023/05/29 02:23:23;;;;;;;5.75;1.23;;;13.00;99.90;;;;;;5097862;28;20422;-74
2023/05/29 02:25:51;;;;;;;4.13;0.38;;;12.80;99.90;;;;;;5116545;28;20027;-74
2023/05/29 02:28:16;;;;;;;0.43;0.43;;;12.80;99.90;;;;;;5116623;28;20110;-74
2023/05/29 02:30:42;;;;;;;0.20;0.20;;;12.80;99.90;;;;;;5116532;28;20118;-74
2023/05/29 02:33:09;;;;;;;0.65;0.65;;;12.80;99.90;;;;;;5098086;28;20051;-74
2023/05/29 02:35:34;;;;;;;5.72;0.85;;;12.80;99.90;;;;;;5098322;28;20391;-74
2023/05/29 02:38:00;;;;;;;0.43;0.43;;;12.90;99.90;;;;;;5115914;28;20040;-74
2023/05/29 02:40:26;;;;;;;0.20;0.20;;;12.90;99.90;;;;;;5098083;28;20036;-74
2023/05/29 02:42:52;;;;;;;0.20;0.20;;;12.90;99.90;;;;;;5116137;28;20031;-74
2023/05/29 02:45:18;;;;;;;0.20;0.20;;;12.80;99.90;;;;;;5098026;28;20031;-74
2023/05/29 02:47:43;;;;;;;0.20;0.20;;;12.80;99.90;;;;;;5098124;28;20024;-74
2023/05/29 02:50:11;;;;;;;0.20;0.20;;;12.70;99.90;;;;;;5116223;28;20051;-74
2023/05/29 02:52:37;;;;;;;2.50;0.60;;;12.80;99.90;;;;;;5115896;28;20046;-74
2023/05/29 02:55:05;;;;;;;2.45;1.50;;;12.90;99.90;;;;;;5116726;28;20016;-74
2023/05/29 02:57:32;;;;;;;0.57;0.30;;;12.60;99.90;;;;;;5098016;28;20059;-74
2023/05/29 02:59:59;;;;;;;1.08;0.63;;;12.60;99.90;;;;;;5097473;28;20024;-74
2023/05/29 03:02:25;;;;;;;0.47;0.47;;;12.50;99.90;;;;;;5097914;28;20027;-74
2023/05/29 03:04:53;;;;;;;1.25;0.90;;;12.40;99.90;;;;;;5097394;28;20073;-74
2023/05/29 03:07:19;;;;;;;0.30;0.30;;;12.40;99.90;;;;;;5097385;28;20030;-74
2023/05/29 03:09:45;;;;;;;0.40;0.40;;;12.50;99.90;;;;;;5115807;28;20035;-74
2023/05/29 03:12:11;;;;;;;0.30;0.30;;;12.50;99.90;;;;;;5115906;28;20027;-74
2023/05/29 03:14:37;;;;;;;0.30;0.30;;;12.70;99.90;;;;;;5115735;28;20066;-74
2023/05/29 03:17:08;;;;;;;0.13;0.13;;;12.70;99.90;;;;;;5097427;28;20031;-74
2023/05/29 03:19:34;;;;;;;0.22;0.22;;;12.60;99.90;;;;;;5097235;28;20088;-74
2023/05/29 03:22:00;;;;;;;4.20;0.30;;;12.60;99.90;;;;;;5097049;28;20176;-74
2023/05/29 03:24:27;;;;;;;0.10;0.10;;;12.50;99.90;;;;;;5097230;28;20019;-73
2023/05/29 03:26:53;;;;;;;0.20;0.20;;;12.40;99.90;;;;;;5097370;28;20085;-74
2023/05/29 03:29:19;;;;;;;0.20;0.20;;;12.40;99.90;;;;;;5115333;28;20024;-74
2023/05/29 03:31:45;;;;;;;3.33;0.85;;;12.50;99.90;;;;;;5096817;28;20418;-74
2023/05/29 03:34:15;;;;;;;0.10;0.10;;;12.40;99.90;;;;;;5080880;28;20028;-74
2023/05/29 03:36:46;;;;;;;0.63;0.32;;;12.40;99.90;;;;;;5115182;28;20119;-73
2023/05/29 03:39:12;;;;;;;1.50;0.88;;;12.30;99.90;;;;;;5096719;28;20024;-74
2023/05/29 03:41:39;;;;;;;1.27;1.25;;;12.30;99.90;;;;;;5096032;28;20051;-74
2023/05/29 03:44:05;;;;;;;0.35;0.28;;;12.20;99.90;;;;;;5096945;28;20031;-74
2023/05/29 03:46:31;;;;;;;4.65;1.65;;;12.30;99.90;;;;;;5096577;28;20019;-73
2023/05/29 03:48:58;;;;;;;4.28;0.95;;;12.20;99.90;;;;;;5096577;28;20024;-74
2023/05/29 03:51:24;;;;;;;0.10;0.10;;;12.20;99.90;;;;;;5096503;28;20543;-73
2023/05/29 03:53:52;;;;;;;0.30;0.30;;;12.00;99.90;;;;;;5080248;28;20102;-73
2023/05/29 03:56:18;;;;;;;3.28;0.90;;;12.20;99.90;;;;;;5096335;28;20527;-75
2023/05/29 03:58:44;;;;;;;0.57;0.52;;;12.10;99.90;;;;;;5096490;28;20027;-74
2023/05/29 04:01:11;;;;;;;0.57;0.57;;;12.30;99.90;;;;;;5096394;28;20047;-73
2023/05/29 04:03:37;;;;;;;2.80;0.85;;;12.10;99.90;;;;;;5114316;28;20412;-74
2023/05/29 04:06:03;;;;;;;1.75;1.65;;;12.10;99.90;;;;;;5096318;28;20020;-73
2023/05/29 04:08:29;;;;;;;1.08;0.80;;;12.00;99.90;;;;;;5096499;28;20629;-73
2023/05/29 04:10:55;;;;;;;0.63;0.63;;;12.00;99.90;;;;;;5096069;28;20024;-74
2023/05/29 04:13:22;;;;;;;0.63;0.63;;;12.10;99.90;;;;;;5096353;28;20035;-73
2023/05/29 04:15:47;;;;;;;0.20;0.20;;;12.20;99.90;;;;;;5095890;28;20028;-73
2023/05/29 04:18:14;;;;;;;6.57;0.57;;;12.20;99.90;;;;;;5079568;28;20539;-74
2023/05/29 04:20:40;;;;;;;0.40;0.40;;;11.90;99.90;;;;;;5095982;28;20114;-73
2023/05/29 04:23:06;;;;;;;0.20;0.20;;;11.80;99.90;;;;;;5096340;28;20047;-74
2023/05/29 04:25:34;;;;;;;1.33;0.85;;;11.90;99.90;;;;;;5096020;28;20020;-74
2023/05/29 04:28:02;;;;;;;2.15;1.58;;;11.80;99.90;;;;;;5095904;28;20114;-73
2023/05/29 04:30:28;;;;;;;4.68;1.60;;;11.80;99.90;;;;;;5096336;28;20032;-74
2023/05/29 04:32:54;;;;;;;6.20;1.83;;;11.80;99.90;;;;;;5095370;28;20396;-73
2023/05/29 04:35:22;;;;;;;2.05;1.95;;;11.70;99.90;;;;;;5095767;28;20020;-73
2023/05/29 04:37:57;;;;;;;0.22;0.22;;;11.80;99.90;;;;;;5095733;28;20049;-74
2023/05/29 04:40:26;;;;;;;0.17;0.17;;;11.80;99.90;;;;;;5095487;28;20024;-73
2023/05/29 04:42:52;;;;;;;2.58;0.70;;;11.70;99.90;;;;;;5095445;28;20027;-74
2023/05/29 04:45:22;;;;;;;0.32;0.32;;;11.80;99.90;;;;;;5095161;28;20027;-73
2023/05/29 04:47:49;;;;;;;0.57;0.28;;;11.70;99.90;;;;;;5095049;28;20019;-74
2023/05/29 04:50:17;;;;;;;0.20;0.20;;;11.80;99.90;;;;;;5095592;28;20577;-73
2023/05/29 04:52:44;;;;;;;3.58;0.73;;;11.90;99.90;;;;;;5113945;28;20079;-74
2023/05/29 04:55:11;;;;;;;3.50;0.75;;;11.80;99.90;;;;;;5095228;28;20038;-74
2023/05/29 04:57:37;;;;;;;1.58;0.80;;;11.80;99.90;;;;;;5095514;28;20028;-73
2023/05/29 05:00:08;;;;;;;6.88;1.15;;;11.90;99.90;;;;;;5095377;28;20111;-73
2023/05/29 05:02:36;;;;;;;0.85;0.85;;;11.90;99.90;;;;;;5095252;28;20050;-74
2023/05/29 05:05:02;;;;;;;1.10;1.00;;;12.00;99.90;;;;;;5095029;28;20464;-74
2023/05/29 05:07:28;;;;;;;0.22;0.22;;;12.10;99.90;;;;;;5095487;28;20042;-73
2023/05/29 05:09:54;;;;;;;0.20;0.20;;;12.20;99.90;;;;;;5095222;28;20051;-73
2023/05/29 05:12:24;;;;;;;0.20;0.20;;;12.30;99.90;;;;;;5095360;28;20031;-73
2023/05/29 05:14:50;;;;;;;2.65;1.13;;;12.30;99.90;;;;;;5095343;28;20042;-73
2023/05/29 05:17:16;;;;;;;2.20;0.63;;;12.40;99.90;;;;;;5094597;28;20476;-74
2023/05/29 05:19:42;;;;;;;0.13;0.13;;;12.40;99.90;;;;;;5095376;28;20022;-73
2023/05/29 05:22:08;;;;;;;2.03;0.63;;;12.60;99.90;;;;;;5113142;28;20028;-74
2023/05/29 05:24:35;;;;;;;2.15;0.20;;;12.50;99.90;;;;;;5095149;28;20022;-73
2023/05/29 05:27:03;;;;;;;2.28;2.17;;;12.60;99.90;;;;;;5095034;28;20063;-73
2023/05/29 05:29:29;;;;;;;0.10;0.10;;;12.90;99.90;;;;;;5095117;28;20015;-74
2023/05/29 05:31:56;;;;;;;15.00;1.27;;;13.00;99.90;;;;;;5094562;28;20114;-74
2023/05/29 05:34:23;;;;;;;0.30;0.30;;;13.10;99.90;;;;;;5078093;28;20027;-74
2023/05/29 05:36:49;;;;;;;1.65;0.55;;;12.90;99.90;;;;;;5095129;28;20057;-73
2023/05/29 05:39:15;;;;;;;0.10;0.10;;;12.80;99.90;;;;;;5094850;28;20089;-74
2023/05/29 05:41:44;;;;;;;9.30;5.95;;;13.10;99.90;;;;;;5094798;28;20433;-74
2023/05/29 05:44:13;;;;;;;0.20;0.20;;;13.00;99.90;;;;;;5094770;28;20024;-74
2023/05/29 05:46:58;;;;;;;4.85;1.20;;;13.00;99.90;;;;;;5094761;28;20030;-74
2023/05/29 05:49:25;;;;;;;0.10;0.10;;;13.10;99.90;;;;;;5094728;28;20023;-73
2023/05/29 05:51:50;;;;;;;3.50;0.85;;;13.40;99.90;;;;;;5094643;28;20024;-74
2023/05/29 05:54:16;;;;;;;1.55;0.63;;;13.30;99.90;;;;;;5094798;28;20104;-74
2023/05/29 05:56:42;;;;;;;0.15;0.15;;;13.20;99.90;;;;;;5090943;27;20039;-74
2023/05/29 05:59:10;;;;;;;0.20;0.20;;;13.30;99.90;;;;;;5089899;28;20024;-73
2023/05/29 06:01:37;;;;;;;0.10;0.10;;;13.40;99.90;;;;;;5083512;28;20062;-74
2023/05/29 06:04:03;;;;;;;0.10;0.10;;;13.40;99.90;;;;;;5116271;28;20030;-74
2023/05/29 06:06:31;;;;;;;0.50;0.50;;;13.40;99.90;;;;;;5110397;28;20028;-74
2023/05/29 06:08:58;;;;;;;0.13;0.13;;;13.50;99.90;;;;;;5104713;28;20024;-74
2023/05/29 06:11:25;;;;;;;0.65;0.38;;;13.50;99.90;;;;;;5100028;28;20053;-74
2023/05/29 06:13:52;;;;;;;1.10;0.73;;;13.50;99.90;;;;;;5102996;28;20026;-74
2023/05/29 06:16:26;;;;;;;0.38;0.38;;;13.50;99.90;;;;;;5098541;28;20020;-74
2023/05/29 06:18:52;;;;;;;3.00;1.10;;;13.60;99.90;;;;;;5107394;28;20084;-74
2023/05/29 06:21:19;;;;;;;13.95;0.50;;;13.70;99.90;;;;;;5104723;28;20068;-74
2023/05/29 06:23:51;;;;;;;0.30;0.30;;;13.70;99.90;;;;;;5091702;28;20375;-73
2023/05/29 06:26:17;;;;;;;0.35;0.35;;;13.60;99.90;;;;;;5101090;28;20111;-74
2023/05/29 06:28:43;;;;;;;0.25;0.25;;;13.70;99.90;;;;;;5097858;28;20048;-74
2023/05/29 06:31:09;;;;;;;2.30;0.82;;;13.70;99.90;;;;;;5109441;28;20058;-74
2023/05/29 06:33:37;;;;;;;0.10;0.10;;;13.80;99.90;;;;;;5107023;28;20578;-74
2023/05/29 06:36:05;;;;;;;1.08;0.90;;;13.80;99.90;;;;;;5105211;28;20027;-73
2023/05/29 06:38:31;;;;;;;0.50;0.50;;;13.80;99.90;;;;;;5099551;28;20031;-74
2023/05/29 06:40:58;;;;;;;7.25;0.73;;;13.80;99.90;;;;;;5107663;28;20480;-74
2023/05/29 06:43:24;;;;;;;0.30;0.30;;;13.80;99.90;;;;;;5115092;28;20170;-74
2023/05/29 06:45:55;;;;;;;4.93;0.90;;;13.80;99.90;;;;;;5106750;28;20024;-74
2023/05/29 06:48:21;;;;;;;0.10;0.10;;;14.10;99.90;;;;;;5102507;28;20024;-74
2023/05/29 06:50:48;;;;;;;0.20;0.20;;;14.30;99.90;;;;;;5098561;28;20460;-74
2023/05/29 06:53:34;;;;;;;0.20;0.20;;;14.40;99.90;;;;;;5115605;28;20184;-75
2023/05/29 06:56:00;;;;;;;0.13;0.13;;;14.30;99.90;;;;;;5106746;28;20480;-74
2023/05/29 06:58:26;;;;;;;0.10;0.10;;;14.50;99.90;;;;;;5082860;28;20110;-74
2023/05/29 07:01:05;;;;;;;2.28;2.17;;;14.50;99.90;;;;;;5094242;28;20030;-75
2023/05/29 07:03:32;;;;;;;0.30;0.30;;;14.30;99.90;;;;;;5113178;28;20479;-74
2023/05/29 07:05:58;;;;;;;1.10;1.08;;;14.40;99.90;;;;;;5106554;28;20107;-74
2023/05/29 07:08:25;;;;;;;0.10;0.10;;;14.50;99.90;;;;;;5096404;28;20394;-74
2023/05/29 07:10:52;;;;;;;0.28;0.28;;;14.70;99.90;;;;;;5098622;28;20382;-74
2023/05/29 07:13:20;;;;;;;0.20;0.20;;;14.80;99.90;;;;;;5102960;28;20392;-74
2023/05/29 07:15:45;;;;;;;0.15;0.15;;;14.70;99.90;;;;;;5114699;28;20035;-75
2023/05/29 07:18:12;;;;;;;0.43;0.43;;;14.70;99.90;;;;;;5101203;28;20383;-74
2023/05/29 07:20:39;;;;;;;0.10;0.10;;;14.90;99.90;;;;;;5109882;28;20036;-75
2023/05/29 07:23:05;;;;;;;0.55;0.25;;;15.00;99.90;;;;;;5104460;28;20027;-74
2023/05/29 07:25:32;;;;;;;6.00;0.65;;;15.20;99.90;;;;;;5101931;28;20426;-74
2023/05/29 07:27:58;;;;;;;0.10;0.10;;;15.20;99.90;;;;;;5097481;28;20016;-74
2023/05/29 07:30:24;;;;;;;0.57;0.57;;;15.30;99.90;;;;;;5102166;28;20026;-74
2023/05/29 07:32:51;;;;;;;2.60;0.22;;;15.40;99.90;;;;;;5108798;28;20552;-74
2023/05/29 07:35:18;;;;;;;0.10;0.10;;;15.50;99.90;;;;;;5103648;28;20514;-74
2023/05/29 07:37:44;;;;;;;0.10;0.10;;;15.70;99.90;;;;;;5114155;28;20123;-74
2023/05/29 07:40:13;;;;;;;0.43;0.40;;;15.60;99.90;;;;;;5100220;28;20028;-74
2023/05/29 07:43:08;;;;;;;0.25;0.25;;;15.60;99.90;;;;;;5098361;28;20051;-75
2023/05/29 07:45:43;;;;;;;0.40;0.40;;;15.90;99.90;;;;;;5105100;28;20019;-74
2023/05/29 07:48:09;;;;;;;0.10;0.10;;;16.10;99.90;;;;;;5102588;28;20610;-74
2023/05/29 07:50:36;;;;;;;0.38;0.38;;;16.10;99.90;;;;;;5097395;28;20058;-74
2023/05/29 07:53:02;;;;;;;0.98;0.25;;;16.10;99.90;;;;;;5090330;28;20034;-74
2023/05/29 07:55:29;;;;;;;3.72;1.08;;;16.30;99.90;;;;;;5106290;28;20103;-74
2023/05/29 07:57:55;;;;;;;0.10;0.10;;;16.50;99.90;;;;;;5100144;28;20062;-75
2023/05/29 08:00:21;;;;;;;0.10;0.10;;;16.60;99.90;;;;;;5099360;28;20020;-74
2023/05/29 08:02:47;;;;;;;0.38;0.38;;;16.70;99.90;;;;;;5114301;28;20043;-75
2023/05/29 08:05:42;;;;;;;0.10;0.10;;;16.90;99.90;;;;;;5113224;28;20471;-74
2023/05/29 08:08:13;;;;;;;5.28;0.20;;;16.70;99.90;;;;;;5105584;28;20135;-74
2023/05/29 08:10:40;;;;;;;0.88;0.88;;;16.90;99.80;;;;;;5113232;28;20027;-75
2023/05/29 08:13:06;;;;;;;0.52;0.52;;;16.90;99.70;;;;;;5101941;28;20031;-75
2023/05/29 08:15:34;;;;;;;0.10;0.10;;;17.00;99.70;;;;;;5099276;28;20027;-74
2023/05/29 08:18:00;;;;;;;0.20;0.20;;;17.00;99.30;;;;;;5113829;28;20036;-74
2023/05/29 08:20:26;;;;;;;0.30;0.28;;;16.90;99.90;;;;;;5113069;28;20027;-74
2023/05/29 08:22:51;;;;;;;3.53;1.20;;;17.00;99.20;;;;;;5113466;28;20020;-74
2023/05/29 08:25:17;;;;;;;0.10;0.10;;;17.00;99.00;;;;;;5113430;28;20027;-74
2023/05/29 08:27:43;;;;;;;5.68;1.95;;;17.20;99.20;;;;;;5113052;28;20032;-75
2023/05/29 08:30:10;;;;;;;0.70;0.70;;;17.50;99.20;;;;;;5113358;28;20023;-74
2023/05/29 08:32:36;;;;;;;2.85;0.60;;;17.60;98.10;;;;;;5113386;28;20065;-75
2023/05/29 08:35:04;;;;;;;0.20;0.20;;;17.50;98.10;;;;;;5113485;28;20028;-75
2023/05/29 08:37:29;;;;;;;1.13;0.88;;;17.60;98.30;;;;;;5112949;28;20035;-74
2023/05/29 08:39:55;;;;;;;0.30;0.30;;;17.30;98.50;;;;;;5112503;28;20085;-75
2023/05/29 08:42:29;;;;;;;1.33;0.52;;;17.30;98.20;;;;;;5113186;28;20114;-75
2023/05/29 08:44:59;;;;;;;0.10;0.10;;;17.40;98.10;;;;;;5077192;28;20415;-74
2023/05/29 08:47:27;;;;;;;1.27;0.95;;;17.40;97.80;;;;;;5112946;28;20035;-73
2023/05/29 08:49:53;;;;;;;0.10;0.10;;;17.70;97.70;;;;;;5113095;28;20019;-74
2023/05/29 08:52:25;;;;;;;0.20;0.20;;;17.70;98.10;;;;;;5112900;28;20051;-75
2023/05/29 08:54:52;;;;;;;0.85;0.85;;;17.80;97.70;;;;;;5112903;28;20479;-75
2023/05/29 08:57:18;;;;;;;0.10;0.10;;;18.00;97.30;;;;;;5112787;28;20031;-74
2023/05/29 08:59:45;;;;;;;0.10;0.10;;;18.00;97.10;;;;;;5112853;28;20375;-74
2023/05/29 09:02:11;;;;;;;1.10;0.63;;;18.20;97.20;;;;;;5095309;28;20070;-74
2023/05/29 09:04:39;;;;;;;0.10;0.10;;;18.10;96.50;;;;;;5102396;28;20532;-74
2023/05/29 09:07:08;;;;;;;0.10;0.10;;;18.00;97.30;;;;;;5112811;28;20383;-74
2023/05/29 09:09:34;;;;;;;0.10;0.10;;;18.50;96.70;;;;;;5112347;28;20019;-74
2023/05/29 09:12:00;;;;;;;1.17;1.08;;;18.30;96.70;;;;;;5112804;28;20043;-74
2023/05/29 09:14:34;;;;;;;0.10;0.10;;;18.70;96.00;;;;;;5112679;28;20031;-74
2023/05/29 09:17:00;;;;;;;0.10;0.10;;;18.70;96.60;;;;;;5095611;28;20411;-74
2023/05/29 09:19:26;;;;;;;0.52;0.52;;;18.90;96.00;;;;;;5099381;28;20020;-74
2023/05/29 09:21:51;;;;;;;0.20;0.20;;;19.10;95.80;;;;;;5112747;28;20026;-74
2023/05/29 09:24:17;;;;;;;0.40;0.40;;;19.30;95.30;;;;;;5111749;28;20481;-74
2023/05/29 09:26:52;;;;;;;0.10;0.10;;;19.20;94.90;;;;;;5112483;28;20030;-74
2023/05/29 09:29:17;;;;;;;1.45;0.70;;;19.30;95.10;;;;;;5112599;28;20076;-74
2023/05/29 09:31:47;;;;;;;0.15;0.15;;;19.00;95.40;;;;;;5112117;28;20106;-75
2023/05/29 09:34:13;;;;;;;0.32;0.20;;;19.10;95.30;;;;;;5112535;28;20031;-74
2023/05/29 09:36:38;;;;;;;2.42;1.27;;;19.40;94.90;;;;;;5112596;28;20031;-74
2023/05/29 09:39:05;;;;;;;2.97;0.88;;;19.70;94.90;;;;;;5111982;28;20039;-74
2023/05/29 09:41:31;;;;;;;0.17;0.15;;;19.50;94.80;;;;;;5112257;28;20111;-74
2023/05/29 09:44:00;;;;;;;0.03;0.03;;;19.70;95.40;;;;;;5112886;28;20448;-74
2023/05/29 09:46:26;;;;;;;0.05;0.05;;;19.80;95.20;;;;;;5112419;28;20027;-74
2023/05/29 09:48:52;;;;;;;0.10;0.10;;;20.00;94.10;;;;;;5112288;28;20015;-74
2023/05/29 09:51:22;;;;;;;0.00;0.00;;;20.00;94.20;;;;;;5111924;28;20226;-74
2023/05/29 09:53:50;;;;;;;0.00;0.00;;;20.10;94.10;;;;;;5106024;28;20027;-74
2023/05/29 09:56:17;;;;;;;0.75;0.75;;;20.00;93.90;;;;;;5112152;28;20102;-74
2023/05/29 09:58:47;;;;;;;0.22;0.22;;;20.20;94.10;;;;;;5103881;28;20049;-74
2023/05/29 10:01:17;;;;;;;17.63;1.15;;;20.30;94.30;;;;;;5097207;28;20452;-74
2023/05/29 10:03:43;;;;;;;1.95;0.30;;;20.50;94.30;;;;;;5111892;28;20027;-74
2023/05/29 10:06:18;;;;;;;3.05;2.75;;;20.20;94.40;;;;;;5111548;28;20022;-74
2023/05/29 10:08:50;;;;;;;0.10;0.10;;;20.50;93.80;;;;;;5111700;28;20038;-74
2023/05/29 10:11:24;;;;;;;0.13;0.13;;;20.50;93.90;;;;;;5112321;28;20034;-74
2023/05/29 10:13:52;;;;;;;0.00;0.00;;;20.60;93.60;;;;;;5106174;28;20042;-74
2023/05/29 10:16:22;;;;;;;0.10;0.10;;;20.50;93.30;;;;;;5094623;28;20101;-73
2023/05/29 10:18:54;;;;;;;1.17;0.68;;;20.70;93.00;;;;;;5112269;28;20043;-74
2023/05/29 10:21:21;;;;;;;0.10;0.10;;;20.90;93.50;;;;;;5108448;28;20020;-74
2023/05/29 10:23:49;;;;;;;0.10;0.10;;;21.30;93.00;;;;;;5101430;28;20024;-74
2023/05/29 10:26:30;;;;;;;0.00;0.00;;;21.10;93.20;;;;;;5111559;28;20060;-74
2023/05/29 10:29:22;;;;;;;0.05;0.05;;;21.00;92.50;;;;;;5112048;28;20501;-74
2023/05/29 10:31:55;;;;;;;;;;;21.00;93.10;;;;;;5100448;28;20023;-74
2023/05/29 10:34:40;;;;;;;5.93;2.35;;;21.50;93.10;;;;;;5111623;28;19908;-73
2023/05/29 10:37:21;;;;;;;0.60;0.60;;;21.60;92.60;;;;;;5111202;28;20063;-73
2023/05/29 10:39:47;;;;;;;0.38;0.38;;;21.40;91.90;;;;;;5109444;28;20106;-73
2023/05/29 10:42:49;;;;;;;1.30;0.47;;;21.40;92.20;;;;;;5112238;28;20130;-74
2023/05/29 10:45:32;;;;;;;0.00;0.00;;;21.20;92.40;;;;;;5041192;28;20037;-74
2023/05/29 10:48:06;;;;;;;0.20;0.20;;;21.40;92.70;;;;;;5104038;28;20134;-73
2023/05/29 10:50:44;;;;;;;0.15;0.15;;;21.80;92.80;;;;;;5115352;28;20035;-74
2023/05/29 10:53:14;;;;;;;0.80;0.75;;;22.00;92.10;;;;;;5115365;28;20032;-74
2023/05/29 10:55:41;;;;;;;2.92;0.17;;;22.10;92.10;;;;;;5115289;28;20024;-74
2023/05/29 10:58:20;;;;;;;0.70;0.47;;;22.10;92.10;;;;;;5114668;28;20024;-74
2023/05/29 11:00:48;;;;;;;2.55;0.85;;;22.00;92.60;;;;;;5115217;28;20023;-74
2023/05/29 11:03:31;;;;;;;0.08;0.08;;;22.00;91.50;;;;;;5115092;28;20047;-74
2023/05/29 11:06:04;;;;;;;0.10;0.10;;;22.20;91.90;;;;;;5098509;28;20023;-74
2023/05/29 11:08:53;;;;;;;2.83;1.75;;;22.30;91.30;;;;;;5114988;28;20035;-72
2023/05/29 11:11:28;;;;;;;2.25;0.50;;;22.60;91.90;;;;;;5114793;28;20418;-73
2023/05/29 11:13:59;;;;;;;2.58;0.98;;;22.70;90.80;;;;;;5114576;28;20039;-73
2023/05/29 11:16:25;;;;;;;0.00;0.00;;;22.80;91.40;;;;;;5114783;28;20460;-73
2023/05/29 11:18:53;;;;;;;8.48;1.35;;;22.80;91.60;;;;;;5114887;28;20020;-73
2023/05/29 11:21:24;;;;;;;0.00;0.00;;;22.40;90.80;;;;;;5111563;28;20015;-73
2023/05/29 11:23:54;;;;;;;0.00;0.00;;;22.50;91.90;;;;;;5107141;28;20031;-73
2023/05/29 11:26:22;;;;;;;0.73;0.73;;;22.70;90.70;;;;;;5114453;28;20039;-72
2023/05/29 11:28:48;;;;;;;4.10;0.35;;;22.70;90.90;;;;;;5114831;28;20011;-72
2023/05/29 11:31:19;;;;;;;0.20;0.20;;;23.10;90.90;;;;;;5114538;28;20032;-73
2023/05/29 11:33:50;;;;;;;0.00;0.00;;;22.70;90.50;;;;;;5104599;28;20105;-73
2023/05/29 11:36:20;;;;;;;0.50;0.50;;;22.90;90.50;;;;;;5114109;28;20031;-73
2023/05/29 11:38:46;;;;;;;0.10;0.10;;;23.20;89.60;;;;;;5098761;28;20532;-73
2023/05/29 11:41:12;;;;;;;0.20;0.20;;;23.30;89.40;;;;;;5113787;28;20106;-72
2023/05/29 11:43:38;;;;;;;10.75;4.13;;;23.90;90.20;;;;;;5114478;28;20036;-73
2023/05/29 11:46:18;;;;;;;0.20;0.20;;;24.00;88.50;;;;;;5114265;28;20019;-72
2023/05/29 11:48:47;;;;;;;0.95;0.52;;;23.70;88.10;;;;;;5105718;28;20027;-73
2023/05/29 11:51:14;;;;;;;0.60;0.22;;;23.50;89.40;;;;;;5114043;28;20460;-73
2023/05/29 11:53:44;;;;;;;2.47;0.43;;;23.60;89.70;;;;;;5114451;28;20371;-73
2023/05/29 11:56:11;;;;;;;0.00;0.00;;;23.60;88.90;;;;;;5113534;28;20404;-74
2023/05/29 11:58:38;;;;;;;1.20;0.55;;;23.60;90.20;;;;;;5114601;28;20452;-71
2023/05/29 12:01:05;;;;;;;0.13;0.13;;;23.40;89.10;;;;;;5098753;28;20491;-73
2023/05/29 12:03:39;;;;;;;0.43;0.20;;;23.70;90.00;;;;;;5113481;28;20012;-73
2023/05/29 12:06:06;;;;;;;0.10;0.10;;;24.30;88.90;;;;;;5113965;28;20022;-73
2023/05/29 12:08:32;;;;;;;1.10;1.00;;;24.10;88.80;;;;;;5114024;28;20028;-72
2023/05/29 12:10:57;;;;;;;0.35;0.35;;;24.00;88.00;;;;;;5113339;28;20027;-74
2023/05/29 12:13:23;;;;;;;0.68;0.68;;;23.80;87.60;;;;;;5113786;28;20464;-72
2023/05/29 12:15:52;;;;;;;1.55;0.52;;;23.90;86.30;;;;;;5113517;28;20036;-72
2023/05/29 12:18:18;;;;;;;3.42;1.05;;;23.20;86.50;;;;;;5112056;28;20421;-73
2023/05/29 12:20:44;;;;;;;4.03;0.73;;;23.20;87.40;;;;;;5111614;27;20027;-72
2023/05/29 12:23:11;;;;;;;0.10;0.10;;;23.80;87.00;;;;;;5109841;28;20057;-72
2023/05/29 12:25:37;;;;;;;0.00;0.00;;;24.20;87.10;;;;;;5094371;28;20016;-71
2023/05/29 12:28:04;;;;;;;1.17;0.73;;;24.50;86.40;;;;;;5113610;28;20028;-71
2023/05/29 12:30:30;;;;;;;0.63;0.63;;;23.90;86.90;;;;;;5113956;28;20106;-71
2023/05/29 12:32:56;;;;;;;0.00;0.00;;;24.00;87.30;;;;;;5113721;28;20424;-71
2023/05/29 12:35:29;;;;;;;1.85;0.70;;;24.30;86.90;;;;;;5113898;28;20102;-71
2023/05/29 12:38:00;;;;;;;1.58;1.48;;;24.40;85.00;;;;;;5113982;28;20035;-71
2023/05/29 12:40:27;;;;;;;10.43;2.40;;;24.60;85.50;;;;;;5114015;28;20046;-71
2023/05/29 12:43:02;;;;;;;7.22;0.95;;;24.70;85.80;;;;;;5113825;28;20028;-71
2023/05/29 12:45:30;;;;;;;0.20;0.10;;;24.50;84.80;;;;;;5113505;28;20045;-72
2023/05/29 12:47:58;;;;;;;0.40;0.38;;;24.70;85.70;;;;;;5113921;28;20034;-72
2023/05/29 12:50:27;;;;;;;0.47;0.43;;;24.40;86.40;;;;;;5113788;28;20035;-72
2023/05/29 12:52:56;;;;;;;0.08;0.08;;;24.60;86.30;;;;;;5088323;28;20020;-72
2023/05/29 12:55:22;;;;;;;0.30;0.30;;;24.70;84.40;;;;;;5075268;28;20028;-72